sensor_id;sensor_type;location;lat;lon;timestamp;temperature;humidity
16388;DHT22;8303;53.446;9.988;2022-12-01T05:45:33;3.90;99.90
16388;DHT22;8303;53.446;9.988;2022-12-01T05:48:01;3.80;99.90
16388;DHT22;8303;53.446;9.988;2022-12-01T05:50:28;3.90;99.90
16388;DHT22;8303;53.446;9.988;2022-12-01T05:52:56;3.90;99.90
16388;DHT22;8303;53.446;9.988;2022-12-01T05:55:23;3.90;99.90
16388;DHT22;8303;53.446;9.988;2022-12-01T05:57:50;3.90;99.90
16388;DHT22;8303;53.446;9.988;2022-12-01T06:00:18;3.80;99.90
16388;DHT22;8303;53.446;9.988;2022-12-01T06:02:49;3.80;99.90
16388;DHT22;8303;53.446;9.988;2022-12-01T06:05:16;3.90;99.90
16388;DHT22;8303;53.446;9.988;2022-12-01T06:07:43;3.90;99.90
16388;DHT22;8303;53.446;9.988;2022-12-01T06:10:11;3.80;99.90
16388;DHT22;8303;53.446;9.988;2022-12-01T06:12:38;3.80;99.90
16388;DHT22;8303;53.446;9.988;2022-12-01T06:15:06;3.90;99.90
16388;DHT22;8303;53.446;9.988;2022-12-01T06:17:34;3.90;99.90
16388;DHT22;8303;53.446;9.988;2022-12-01T06:20:03;3.90;99.90
16388;DHT22;8303;53.446;9.988;2022-12-01T06:22:30;3.90;99.90
16388;DHT22;8303;53.446;9.988;2022-12-01T06:24:57;3.90;99.90
16388;DHT22;8303;53.446;9.988;2022-12-01T06:27:26;3.90;99.90
16388;DHT22;8303;53.446;9.988;2022-12-01T06:29:54;3.80;99.90
16388;DHT22;8303;53.446;9.988;2022-12-01T06:32:23;3.90;99.90
16388;DHT22;8303;53.446;9.988;2022-12-01T06:34:50;3.80;99.90
16388;DHT22;8303;53.446;9.988;2022-12-01T06:37:21;3.70;99.90
16388;DHT22;8303;53.446;9.988;2022-12-01T06:39:48;3.70;99.90
16388;DHT22;8303;53.446;9.988;2022-12-01T06:42:15;3.70;99.90
16388;DHT22;8303;53.446;9.988;2022-12-01T06:44:42;3.60;99.90
16388;DHT22;8303;53.446;9.988;2022-12-01T06:47:11;3.60;99.90
16388;DHT22;8303;53.446;9.988;2022-12-01T06:49:38;3.50;99.90
16388;DHT22;8303;53.446;9.988;2022-12-01T06:52:05;3.50;99.90
16388;DHT22;8303;53.446;9.988;2022-12-01T06:54:33;3.50;99.90
16388;DHT22;8303;53.446;9.988;2022-12-01T06:57:02;3.50;99.90
16388;DHT22;8303;53.446;9.988;2022-12-01T06:59:29;3.40;99.90
16388;DHT22;8303;53.446;9.988;2022-12-01T07:01:56;3.50;99.90
16388;DHT22;8303;53.446;9.988;2022-12-01T07:04:23;3.50;99.90
16388;DHT22;8303;53.446;9.988;2022-12-01T07:06:50;3.50;99.90
16388;DHT22;8303;53.446;9.988;2022-12-01T07:09:18;3.50;99.90
16388;DHT22;8303;53.446;9.988;2022-12-01T07:11:46;3.40;99.90
16388;DHT22;8303;53.446;9.988;2022-12-01T07:14:21;3.40;99.90
16388;DHT22;8303;53.446;9.988;2022-12-01T07:16:48;3.50;99.90
16388;DHT22;8303;53.446;9.988;2022-12-01T07:19:15;3.40;99.90
16388;DHT22;8303;53.446;9.988;2022-12-01T07:21:42;3.40;99.90
16388;DHT22;8303;53.446;9.988;2022-12-01T07:24:10;3.40;99.90
16388;DHT22;8303;53.446;9.988;2022-12-01T07:26:40;3.40;99.90
16388;DHT22;8303;53.446;9.988;2022-12-01T07:29:09;3.40;1.00
16388;DHT22;8303;53.446;9.988;2022-12-01T07:31:37;3.30;99.90
16388;DHT22;8303;53.446;9.988;2022-12-01T07:34:05;3.30;99.90
16388;DHT22;8303;53.446;9.988;2022-12-01T07:36:32;3.30;1.00
16388;DHT22;8303;53.446;9.988;2022-12-01T07:39:02;3.30;99.90
16388;DHT22;8303;53.446;9.988;2022-12-01T07:41:30;3.30;1.00
16388;DHT22;8303;53.446;9.988;2022-12-01T07:44:03;3.30;1.00
16388;DHT22;8303;53.446;9.988;2022-12-01T07:46:48;3.40;1.00
16388;DHT22;8303;53.446;9.988;2022-12-01T07:49:16;3.40;1.00
16388;DHT22;8303;53.446;9.988;2022-12-01T07:51:45;3.40;1.00
16388;DHT22;8303;53.446;9.988;2022-12-01T07:54:12;3.40;99.90
16388;DHT22;8303;53.446;9.988;2022-12-01T07:56:40;3.50;1.00
16388;DHT22;8303;53.446;9.988;2022-12-01T07:59:07;3.50;1.00
16388;DHT22;8303;53.446;9.988;2022-12-01T08:01:36;3.50;1.00
16388;DHT22;8303;53.446;9.988;2022-12-01T08:04:05;3.50;99.90
16388;DHT22;8303;53.446;9.988;2022-12-01T08:06:32;3.50;99.90
16388;DHT22;8303;53.446;9.988;2022-12-01T08:09:02;3.40;99.90
16388;DHT22;8303;53.446;9.988;2022-12-01T08:11:30;3.40;99.90
16388;DHT22;8303;53.446;9.988;2022-12-01T08:13:57;3.40;99.90
16388;DHT22;8303;53.446;9.988;2022-12-01T08:16:34;3.40;99.90
16388;DHT22;8303;53.446;9.988;2022-12-01T08:19:01;3.40;99.90
16388;DHT22;8303;53.446;9.988;2022-12-01T08:21:29;3.40;99.90
16388;DHT22;8303;53.446;9.988;2022-12-01T08:23:57;3.40;99.90
16388;DHT22;8303;53.446;9.988;2022-12-01T08:26:25;3.50;99.90
16388;DHT22;8303;53.446;9.988;2022-12-01T08:28:52;3.50;99.90
16388;DHT22;8303;53.446;9.988;2022-12-01T08:31:22;3.60;99.90
16388;DHT22;8303;53.446;9.988;2022-12-01T08:33:50;3.50;99.90
16388;DHT22;8303;53.446;9.988;2022-12-01T08:36:18;3.60;99.90
16388;DHT22;8303;53.446;9.988;2022-12-01T08:38:50;3.50;99.90
16388;DHT22;8303;53.446;9.988;2022-12-01T08:41:18;3.50;99.90
16388;DHT22;8303;53.446;9.988;2022-12-01T08:43:45;3.40;99.90
16388;DHT22;8303;53.446;9.988;2022-12-01T08:46:13;3.40;99.90
16388;DHT22;8303;53.446;9.988;2022-12-01T08:48:41;3.50;99.90
16388;DHT22;8303;53.446;9.988;2022-12-01T08:51:10;3.40;99.90
16388;DHT22;8303;53.446;9.988;2022-12-01T08:53:40;3.30;99.90
16388;DHT22;8303;53.446;9.988;2022-12-01T08:56:12;3.30;99.90
16388;DHT22;8303;53.446;9.988;2022-12-01T08:58:40;3.30;99.90
16388;DHT22;8303;53.446;9.988;2022-12-01T09:01:09;3.40;1.00
16388;DHT22;8303;53.446;9.988;2022-12-01T09:03:37;3.40;1.00
16388;DHT22;8303;53.446;9.988;2022-12-01T09:06:07;3.40;1.00
16388;DHT22;8303;53.446;9.988;2022-12-01T09:08:35;3.30;99.90
16388;DHT22;8303;53.446;9.988;2022-12-01T09:11:04;3.30;1.00
16388;DHT22;8303;53.446;9.988;2022-12-01T09:13:34;3.30;1.00
16388;DHT22;8303;53.446;9.988;2022-12-01T09:16:03;3.30;1.00
16388;DHT22;8303;53.446;9.988;2022-12-01T09:18:31;3.30;1.00
16388;DHT22;8303;53.446;9.988;2022-12-01T09:20:59;3.40;1.00
16388;DHT22;8303;53.446;9.988;2022-12-01T09:23:42;3.60;1.00
16388;DHT22;8303;53.446;9.988;2022-12-01T09:26:30;3.40;1.00
16388;DHT22;8303;53.446;9.988;2022-12-01T09:29:03;3.40;1.00
16388;DHT22;8303;53.446;9.988;2022-12-01T09:31:31;3.30;1.00
16388;DHT22;8303;53.446;9.988;2022-12-01T09:34:01;3.30;1.00
16388;DHT22;8303;53.446;9.988;2022-12-01T09:36:31;3.40;1.00
16388;DHT22;8303;53.446;9.988;2022-12-01T09:38:59;3.40;1.00
16388;DHT22;8303;53.446;9.988;2022-12-01T09:41:30;3.50;1.00
16388;DHT22;8303;53.446;9.988;2022-12-01T09:44:02;3.40;1.00
16388;DHT22;8303;53.446;9.988;2022-12-01T09:46:36;3.50;1.00
16388;DHT22;8303;53.446;9.988;2022-12-01T09:49:11;3.50;1.00
16388;DHT22;8303;53.446;9.988;2022-12-01T09:51:38;3.40;1.00
16388;DHT22;8303;53.446;9.988;2022-12-01T09:54:07;3.30;1.00
16388;DHT22;8303;53.446;9.988;2022-12-01T09:56:42;3.20;1.00
16388;DHT22;8303;53.446;9.988;2022-12-01T09:59:16;3.20;1.00
16388;DHT22;8303;53.446;9.988;2022-12-01T10:01:49;3.30;1.00
16388;DHT22;8303;53.446;9.988;2022-12-01T10:04:22;3.40;1.00
16388;DHT22;8303;53.446;9.988;2022-12-01T10:06:54;3.40;1.00
16388;DHT22;8303;53.446;9.988;2022-12-01T10:09:26;3.30;1.00
16388;DHT22;8303;53.446;9.988;2022-12-01T10:11:58;3.30;1.00
16388;DHT22;8303;53.446;9.988;2022-12-01T10:14:32;3.30;1.00
16388;DHT22;8303;53.446;9.988;2022-12-01T10:17:06;3.20;1.00
16388;DHT22;8303;53.446;9.988;2022-12-01T10:19:43;3.10;1.00
16388;DHT22;8303;53.446;9.988;2022-12-01T10:22:31;3.20;1.00
16388;DHT22;8303;53.446;9.988;2022-12-01T10:25:12;3.00;1.00
16388;DHT22;8303;53.446;9.988;2022-12-01T10:27:46;3.10;1.00
16388;DHT22;8303;53.446;9.988;2022-12-01T10:30:19;3.10;1.00
16388;DHT22;8303;53.446;9.988;2022-12-01T10:32:54;3.10;1.00
16388;DHT22;8303;53.446;9.988;2022-12-01T10:35:24;3.10;1.00
16388;DHT22;8303;53.446;9.988;2022-12-01T10:37:56;3.10;1.00
16388;DHT22;8303;53.446;9.988;2022-12-01T10:40:25;3.00;1.00
16388;DHT22;8303;53.446;9.988;2022-12-01T10:42:53;3.00;1.00
16388;DHT22;8303;53.446;9.988;2022-12-01T10:45:23;3.00;1.00
16388;DHT22;8303;53.446;9.988;2022-12-01T10:48:10;3.00;1.00
16388;DHT22;8303;53.446;9.988;2022-12-01T10:50:40;3.00;1.00
16388;DHT22;8303;53.446;9.988;2022-12-01T10:53:25;2.90;1.00
16388;DHT22;8303;53.446;9.988;2022-12-01T10:55:59;2.90;1.00
16388;DHT22;8303;53.446;9.988;2022-12-01T10:58:30;3.00;1.00
16388;DHT22;8303;53.446;9.988;2022-12-01T11:01:01;2.90;1.00
16388;DHT22;8303;53.446;9.988;2022-12-01T11:03:30;2.80;1.00
16388;DHT22;8303;53.446;9.988;2022-12-01T11:05:59;2.70;1.00
16388;DHT22;8303;53.446;9.988;2022-12-01T11:08:35;2.70;1.00
16388;DHT22;8303;53.446;9.988;2022-12-01T11:11:04;2.80;1.00
16388;DHT22;8303;53.446;9.988;2022-12-01T11:13:34;2.90;1.00
16388;DHT22;8303;53.446;9.988;2022-12-01T11:16:05;2.90;1.00
16388;DHT22;8303;53.446;9.988;2022-12-01T11:18:34;2.90;1.00
16388;DHT22;8303;53.446;9.988;2022-12-01T11:21:07;2.80;1.00
16388;DHT22;8303;53.446;9.988;2022-12-01T11:23:37;2.80;1.00
16388;DHT22;8303;53.446;9.988;2022-12-01T11:26:11;2.80;99.90
16388;DHT22;8303;53.446;9.988;2022-12-01T11:28:49;2.80;99.90
16388;DHT22;8303;53.446;9.988;2022-12-01T11:31:20;2.90;1.00
16388;DHT22;8303;53.446;9.988;2022-12-01T11:33:50;2.80;99.90
16388;DHT22;8303;53.446;9.988;2022-12-01T11:36:24;2.70;1.00
16388;DHT22;8303;53.446;9.988;2022-12-01T11:38:58;2.70;99.90
16388;DHT22;8303;53.446;9.988;2022-12-01T11:41:32;2.80;99.90
16388;DHT22;8303;53.446;9.988;2022-12-01T11:44:03;2.90;1.00
16388;DHT22;8303;53.446;9.988;2022-12-01T11:46:37;2.90;99.90
16388;DHT22;8303;53.446;9.988;2022-12-01T11:49:15;2.80;99.90
16388;DHT22;8303;53.446;9.988;2022-12-01T11:51:42;2.80;99.90
16388;DHT22;8303;53.446;9.988;2022-12-01T11:54:15;3.00;99.90
16388;DHT22;8303;53.446;9.988;2022-12-01T11:56:44;3.00;99.90
16388;DHT22;8303;53.446;9.988;2022-12-01T11:59:15;2.90;99.90
16388;DHT22;8303;53.446;9.988;2022-12-01T12:01:55;2.90;99.90
16388;DHT22;8303;53.446;9.988;2022-12-01T12:04:38;2.90;99.90
16388;DHT22;8303;53.446;9.988;2022-12-01T12:07:12;2.90;99.90
16388;DHT22;8303;53.446;9.988;2022-12-01T12:09:54;2.80;99.90
16388;DHT22;8303;53.446;9.988;2022-12-01T12:12:34;2.90;99.90
16388;DHT22;8303;53.446;9.988;2022-12-01T12:15:11;2.80;99.90
16388;DHT22;8303;53.446;9.988;2022-12-01T12:17:58;2.80;99.90
16388;DHT22;8303;53.446;9.988;2022-12-01T12:20:34;2.90;99.90
16388;DHT22;8303;53.446;9.988;2022-12-01T12:23:21;2.90;99.90
16388;DHT22;8303;53.446;9.988;2022-12-01T12:25:59;2.90;1.00
16388;DHT22;8303;53.446;9.988;2022-12-01T12:28:37;2.90;1.00
16388;DHT22;8303;53.446;9.988;2022-12-01T12:31:15;2.90;1.00
16388;DHT22;8303;53.446;9.988;2022-12-01T12:34:09;2.80;1.00
16388;DHT22;8303;53.446;9.988;2022-12-01T12:36:44;2.80;1.00
16388;DHT22;8303;53.446;9.988;2022-12-01T12:39:39;2.80;1.00
16388;DHT22;8303;53.446;9.988;2022-12-01T12:42:15;2.80;1.00
16388;DHT22;8303;53.446;9.988;2022-12-01T12:44:48;2.90;1.00
16388;DHT22;8303;53.446;9.988;2022-12-01T12:47:39;2.80;1.00
16388;DHT22;8303;53.446;9.988;2022-12-01T12:50:20;2.80;1.00
16388;DHT22;8303;53.446;9.988;2022-12-01T12:52:52;2.80;1.00
16388;DHT22;8303;53.446;9.988;2022-12-01T12:55:23;2.90;1.00
16388;DHT22;8303;53.446;9.988;2022-12-01T12:57:54;2.80;1.00
16388;DHT22;8303;53.446;9.988;2022-12-01T13:00:24;2.90;1.00
16388;DHT22;8303;53.446;9.988;2022-12-01T13:02:55;2.90;1.00
16388;DHT22;8303;53.446;9.988;2022-12-01T13:05:28;2.80;1.00
16388;DHT22;8303;53.446;9.988;2022-12-01T13:08:01;2.80;1.00
16388;DHT22;8303;53.446;9.988;2022-12-01T13:10:35;2.80;1.00
16388;DHT22;8303;53.446;9.988;2022-12-01T13:13:12;2.80;1.00
16388;DHT22;8303;53.446;9.988;2022-12-01T13:15:43;2.80;1.00
16388;DHT22;8303;53.446;9.988;2022-12-01T13:18:21;2.90;1.00
16388;DHT22;8303;53.446;9.988;2022-12-01T13:20:53;2.90;1.00
16388;DHT22;8303;53.446;9.988;2022-12-01T13:23:21;2.80;1.00
16388;DHT22;8303;53.446;9.988;2022-12-01T13:25:51;2.80;1.00
16388;DHT22;8303;53.446;9.988;2022-12-01T13:28:22;2.80;1.00
16388;DHT22;8303;53.446;9.988;2022-12-01T13:30:59;2.80;1.00
16388;DHT22;8303;53.446;9.988;2022-12-01T13:33:27;2.80;1.00
16388;DHT22;8303;53.446;9.988;2022-12-01T13:35:56;2.90;1.00
16388;DHT22;8303;53.446;9.988;2022-12-01T13:38:26;2.90;1.00
16388;DHT22;8303;53.446;9.988;2022-12-01T13:41:12;2.90;1.00
16388;DHT22;8303;53.446;9.988;2022-12-01T13:44:02;2.80;1.00
16388;DHT22;8303;53.446;9.988;2022-12-01T13:46:32;2.90;1.00
16388;DHT22;8303;53.446;9.988;2022-12-01T13:48:59;3.00;1.00
16388;DHT22;8303;53.446;9.988;2022-12-01T13:54:35;3.00;1.00
16388;DHT22;8303;53.446;9.988;2022-12-01T13:57:04;3.00;1.00
16388;DHT22;8303;53.446;9.988;2022-12-01T14:00:19;3.00;1.00
16388;DHT22;8303;53.446;9.988;2022-12-01T14:05:54;2.80;1.00
16388;DHT22;8303;53.446;9.988;2022-12-01T14:08:25;2.80;1.00
16388;DHT22;8303;53.446;9.988;2022-12-01T14:10:55;2.90;1.00
16388;DHT22;8303;53.446;9.988;2022-12-01T14:13:23;2.90;1.00
16388;DHT22;8303;53.446;9.988;2022-12-01T14:15:55;3.00;1.00
16388;DHT22;8303;53.446;9.988;2022-12-01T14:18:31;2.90;1.00
16388;DHT22;8303;53.446;9.988;2022-12-01T14:21:00;2.90;1.00
16388;DHT22;8303;53.446;9.988;2022-12-01T14:23:32;2.90;1.00
16388;DHT22;8303;53.446;9.988;2022-12-01T14:26:11;2.80;1.00
16388;DHT22;8303;53.446;9.988;2022-12-01T14:32:18;2.80;99.90
16388;DHT22;8303;53.446;9.988;2022-12-01T14:34:52;2.80;99.90
16388;DHT22;8303;53.446;9.988;2022-12-01T14:37:23;2.80;99.90
16388;DHT22;8303;53.446;9.988;2022-12-01T14:39:56;2.90;99.90
16388;DHT22;8303;53.446;9.988;2022-12-01T14:42:29;2.80;99.90
16388;DHT22;8303;53.446;9.988;2022-12-01T14:45:16;2.80;99.90
16388;DHT22;8303;53.446;9.988;2022-12-01T14:47:48;2.80;99.90
16388;DHT22;8303;53.446;9.988;2022-12-01T14:50:21;2.80;99.90
16388;DHT22;8303;53.446;9.988;2022-12-01T14:52:52;2.80;99.90
16388;DHT22;8303;53.446;9.988;2022-12-01T14:55:25;2.80;99.90
16388;DHT22;8303;53.446;9.988;2022-12-01T14:57:59;2.70;99.90
16388;DHT22;8303;53.446;9.988;2022-12-01T15:00:29;2.70;99.90
16388;DHT22;8303;53.446;9.988;2022-12-01T15:02:59;2.70;99.90
16388;DHT22;8303;53.446;9.988;2022-12-01T15:05:28;2.70;99.90
16388;DHT22;8303;53.446;9.988;2022-12-01T15:07:58;2.80;99.90
16388;DHT22;8303;53.446;9.988;2022-12-01T15:10:29;2.80;99.90
16388;DHT22;8303;53.446;9.988;2022-12-01T15:13:11;2.80;99.90
16388;DHT22;8303;53.446;9.988;2022-12-01T15:15:49;2.70;99.90
16388;DHT22;8303;53.446;9.988;2022-12-01T15:18:21;2.80;1.00
16388;DHT22;8303;53.446;9.988;2022-12-01T15:20:49;2.80;1.00
16388;DHT22;8303;53.446;9.988;2022-12-01T15:23:21;2.80;1.00
16388;DHT22;8303;53.446;9.988;2022-12-01T15:25:49;2.70;1.00
16388;DHT22;8303;53.446;9.988;2022-12-01T15:28:18;2.70;1.00
16388;DHT22;8303;53.446;9.988;2022-12-01T15:30:48;2.60;1.00
16388;DHT22;8303;53.446;9.988;2022-12-01T15:33:19;2.60;1.00
16388;DHT22;8303;53.446;9.988;2022-12-01T15:35:48;2.60;1.00
16388;DHT22;8303;53.446;9.988;2022-12-01T15:38:18;2.60;1.00
16388;DHT22;8303;53.446;9.988;2022-12-01T15:40:48;2.60;1.00
16388;DHT22;8303;53.446;9.988;2022-12-01T15:43:18;2.60;1.00
16388;DHT22;8303;53.446;9.988;2022-12-01T15:45:52;2.60;1.00
16388;DHT22;8303;53.446;9.988;2022-12-01T15:48:26;2.60;1.00
16388;DHT22;8303;53.446;9.988;2022-12-01T15:51:12;2.50;1.00
16388;DHT22;8303;53.446;9.988;2022-12-01T15:53:45;2.60;1.00
16388;DHT22;8303;53.446;9.988;2022-12-01T15:56:15;2.50;1.00
16388;DHT22;8303;53.446;9.988;2022-12-01T15:58:44;2.50;1.00
16388;DHT22;8303;53.446;9.988;2022-12-01T16:01:13;2.50;1.00
16388;DHT22;8303;53.446;9.988;2022-12-01T16:03:51;2.60;1.00
16388;DHT22;8303;53.446;9.988;2022-12-01T16:06:21;2.60;1.00
16388;DHT22;8303;53.446;9.988;2022-12-01T16:08:52;2.60;1.00
16388;DHT22;8303;53.446;9.988;2022-12-01T16:11:22;2.60;1.00
16388;DHT22;8303;53.446;9.988;2022-12-01T16:13:57;2.60;1.00
16388;DHT22;8303;53.446;9.988;2022-12-01T16:16:34;2.60;62.30
16388;DHT22;8303;53.446;9.988;2022-12-01T16:19:18;2.60;92.90
16388;DHT22;8303;53.446;9.988;2022-12-01T16:21:49;2.60;99.90
16388;DHT22;8303;53.446;9.988;2022-12-01T16:24:21;2.60;99.90
16388;DHT22;8303;53.446;9.988;2022-12-01T16:26:52;2.60;99.90
16388;DHT22;8303;53.446;9.988;2022-12-01T16:29:21;2.50;99.90
16388;DHT22;8303;53.446;9.988;2022-12-01T16:31:49;2.50;99.90
16388;DHT22;8303;53.446;9.988;2022-12-01T16:34:20;2.40;99.90
16388;DHT22;8303;53.446;9.988;2022-12-01T16:36:47;2.40;99.90
16388;DHT22;8303;53.446;9.988;2022-12-01T16:39:14;2.40;99.90
16388;DHT22;8303;53.446;9.988;2022-12-01T16:41:42;2.40;99.90
16388;DHT22;8303;53.446;9.988;2022-12-01T16:44:13;2.40;99.90
16388;DHT22;8303;53.446;9.988;2022-12-01T16:46:40;2.40;99.90
16388;DHT22;8303;53.446;9.988;2022-12-01T16:49:07;2.30;99.90
16388;DHT22;8303;53.446;9.988;2022-12-01T16:51:34;2.30;99.90
16388;DHT22;8303;53.446;9.988;2022-12-01T16:54:02;2.40;99.90
16388;DHT22;8303;53.446;9.988;2022-12-01T16:56:30;2.30;99.90
16388;DHT22;8303;53.446;9.988;2022-12-01T16:58:56;2.30;1.00
16388;DHT22;8303;53.446;9.988;2022-12-01T17:01:27;2.30;99.90
16388;DHT22;8303;53.446;9.988;2022-12-01T17:03:54;2.30;99.90
16388;DHT22;8303;53.446;9.988;2022-12-01T17:06:21;2.40;99.90
16388;DHT22;8303;53.446;9.988;2022-12-01T17:08:48;2.40;99.90
16388;DHT22;8303;53.446;9.988;2022-12-01T17:11:15;2.40;99.90
16388;DHT22;8303;53.446;9.988;2022-12-01T17:13:42;2.40;99.90
16388;DHT22;8303;53.446;9.988;2022-12-01T17:16:09;2.40;99.90
16388;DHT22;8303;53.446;9.988;2022-12-01T17:18:38;2.40;99.90
16388;DHT22;8303;53.446;9.988;2022-12-01T17:21:07;2.40;99.90
16388;DHT22;8303;53.446;9.988;2022-12-01T17:23:35;2.50;99.90
16388;DHT22;8303;53.446;9.988;2022-12-01T17:26:07;2.50;99.90
16388;DHT22;8303;53.446;9.988;2022-12-01T17:28:35;2.50;99.90
16388;DHT22;8303;53.446;9.988;2022-12-01T17:31:03;2.40;99.90
16388;DHT22;8303;53.446;9.988;2022-12-01T17:33:30;2.40;99.90
16388;DHT22;8303;53.446;9.988;2022-12-01T17:36:03;2.40;99.90
16388;DHT22;8303;53.446;9.988;2022-12-01T17:38:33;2.50;99.90
16388;DHT22;8303;53.446;9.988;2022-12-01T17:41:02;2.50;99.90
16388;DHT22;8303;53.446;9.988;2022-12-01T17:43:29;2.50;99.90
16388;DHT22;8303;53.446;9.988;2022-12-01T17:45:56;2.50;99.90
16388;DHT22;8303;53.446;9.988;2022-12-01T17:48:23;2.50;99.90
16388;DHT22;8303;53.446;9.988;2022-12-01T17:50:50;2.50;99.90
16388;DHT22;8303;53.446;9.988;2022-12-01T17:53:18;2.60;99.90
16388;DHT22;8303;53.446;9.988;2022-12-01T17:55:45;2.70;99.90
16388;DHT22;8303;53.446;9.988;2022-12-01T17:58:12;2.60;99.90
16388;DHT22;8303;53.446;9.988;2022-12-01T18:00:39;2.60;99.90
16388;DHT22;8303;53.446;9.988;2022-12-01T18:03:06;2.60;99.90
16388;DHT22;8303;53.446;9.988;2022-12-01T18:05:33;2.60;48.70
16388;DHT22;8303;53.446;9.988;2022-12-01T18:08:00;2.60;52.50
16388;DHT22;8303;53.446;9.988;2022-12-01T18:10:28;2.60;1.00
16388;DHT22;8303;53.446;9.988;2022-12-01T18:12:55;2.60;1.00
16388;DHT22;8303;53.446;9.988;2022-12-01T18:15:22;2.60;21.30
16388;DHT22;8303;53.446;9.988;2022-12-01T18:17:50;2.60;27.80
16388;DHT22;8303;53.446;9.988;2022-12-01T18:20:17;2.70;7.50
16388;DHT22;8303;53.446;9.988;2022-12-01T18:22:44;2.60;1.00
16388;DHT22;8303;53.446;9.988;2022-12-01T18:25:11;2.60;1.00
16388;DHT22;8303;53.446;9.988;2022-12-01T18:27:40;2.50;1.00
16388;DHT22;8303;53.446;9.988;2022-12-01T18:30:08;2.50;1.00
16388;DHT22;8303;53.446;9.988;2022-12-01T18:32:35;2.50;1.00
16388;DHT22;8303;53.446;9.988;2022-12-01T18:35:02;2.60;1.00
16388;DHT22;8303;53.446;9.988;2022-12-01T18:37:29;2.60;1.00
16388;DHT22;8303;53.446;9.988;2022-12-01T18:39:56;2.60;1.00
16388;DHT22;8303;53.446;9.988;2022-12-01T18:42:23;2.60;1.00
16388;DHT22;8303;53.446;9.988;2022-12-01T18:44:51;2.60;1.00
16388;DHT22;8303;53.446;9.988;2022-12-01T18:47:18;2.70;1.00
16388;DHT22;8303;53.446;9.988;2022-12-01T18:49:45;2.60;1.00
16388;DHT22;8303;53.446;9.988;2022-12-01T18:52:12;2.70;1.00
16388;DHT22;8303;53.446;9.988;2022-12-01T18:54:39;2.70;1.00
16388;DHT22;8303;53.446;9.988;2022-12-01T18:57:06;2.70;1.00
16388;DHT22;8303;53.446;9.988;2022-12-01T18:59:33;2.70;1.00
16388;DHT22;8303;53.446;9.988;2022-12-01T19:02:01;2.70;1.00
16388;DHT22;8303;53.446;9.988;2022-12-01T19:04:28;2.70;1.00
16388;DHT22;8303;53.446;9.988;2022-12-01T19:06:56;2.60;1.00
16388;DHT22;8303;53.446;9.988;2022-12-01T19:09:23;2.60;1.00
16388;DHT22;8303;53.446;9.988;2022-12-01T19:11:50;2.60;1.00
16388;DHT22;8303;53.446;9.988;2022-12-01T19:14:25;2.60;1.00
16388;DHT22;8303;53.446;9.988;2022-12-01T19:16:53;2.60;1.00
16388;DHT22;8303;53.446;9.988;2022-12-01T19:19:22;2.50;1.00
16388;DHT22;8303;53.446;9.988;2022-12-01T19:21:49;2.60;1.00
16388;DHT22;8303;53.446;9.988;2022-12-01T19:24:16;2.50;1.00
16388;DHT22;8303;53.446;9.988;2022-12-01T19:26:44;2.50;1.00
16388;DHT22;8303;53.446;9.988;2022-12-01T19:29:11;2.50;1.00
16388;DHT22;8303;53.446;9.988;2022-12-01T19:31:39;2.50;1.00
16388;DHT22;8303;53.446;9.988;2022-12-01T19:34:06;2.50;1.00
16388;DHT22;8303;53.446;9.988;2022-12-01T19:36:34;2.50;1.00
16388;DHT22;8303;53.446;9.988;2022-12-01T19:39:01;2.50;1.00
16388;DHT22;8303;53.446;9.988;2022-12-01T19:41:29;2.40;1.00
16388;DHT22;8303;53.446;9.988;2022-12-01T19:43:57;2.50;1.00
16388;DHT22;8303;53.446;9.988;2022-12-01T19:46:25;2.50;1.00
16388;DHT22;8303;53.446;9.988;2022-12-01T19:48:54;2.40;1.00
16388;DHT22;8303;53.446;9.988;2022-12-01T19:51:23;2.50;1.00
16388;DHT22;8303;53.446;9.988;2022-12-01T19:53:52;2.40;99.90
16388;DHT22;8303;53.446;9.988;2022-12-01T19:56:19;2.40;1.00
16388;DHT22;8303;53.446;9.988;2022-12-01T19:58:46;2.50;1.00
16388;DHT22;8303;53.446;9.988;2022-12-01T20:01:14;2.40;99.90
16388;DHT22;8303;53.446;9.988;2022-12-01T20:03:43;2.40;99.90
16388;DHT22;8303;53.446;9.988;2022-12-01T20:06:12;2.40;99.90
16388;DHT22;8303;53.446;9.988;2022-12-01T20:08:39;2.40;99.90
16388;DHT22;8303;53.446;9.988;2022-12-01T20:11:08;2.40;99.90
16388;DHT22;8303;53.446;9.988;2022-12-01T20:13:37;2.50;99.90
16388;DHT22;8303;53.446;9.988;2022-12-01T20:16:06;2.50;99.90
16388;DHT22;8303;53.446;9.988;2022-12-01T20:18:33;2.50;99.90
16388;DHT22;8303;53.446;9.988;2022-12-01T20:21:05;2.50;99.90
16388;DHT22;8303;53.446;9.988;2022-12-01T20:23:32;2.40;99.90
16388;DHT22;8303;53.446;9.988;2022-12-01T20:26:00;2.40;99.90
16388;DHT22;8303;53.446;9.988;2022-12-01T20:28:28;2.40;99.90
16388;DHT22;8303;53.446;9.988;2022-12-01T20:30:56;2.50;1.00
16388;DHT22;8303;53.446;9.988;2022-12-01T20:33:24;2.50;99.90
16388;DHT22;8303;53.446;9.988;2022-12-01T20:35:51;2.40;99.90
16388;DHT22;8303;53.446;9.988;2022-12-01T20:38:19;2.50;1.00
16388;DHT22;8303;53.446;9.988;2022-12-01T20:40:48;2.50;99.90
16388;DHT22;8303;53.446;9.988;2022-12-01T20:43:16;2.40;99.90
16388;DHT22;8303;53.446;9.988;2022-12-01T20:45:44;2.40;1.00
16388;DHT22;8303;53.446;9.988;2022-12-01T20:48:12;2.40;1.00
16388;DHT22;8303;53.446;9.988;2022-12-01T20:50:39;2.40;1.00
16388;DHT22;8303;53.446;9.988;2022-12-01T20:53:06;2.30;1.00
16388;DHT22;8303;53.446;9.988;2022-12-01T20:55:33;2.40;1.00
16388;DHT22;8303;53.446;9.988;2022-12-01T20:58:01;2.40;1.00
16388;DHT22;8303;53.446;9.988;2022-12-01T21:00:28;2.40;1.00
16388;DHT22;8303;53.446;9.988;2022-12-01T21:02:56;2.40;1.00
16388;DHT22;8303;53.446;9.988;2022-12-01T21:05:23;2.50;1.00
16388;DHT22;8303;53.446;9.988;2022-12-01T21:07:50;2.40;1.00
16388;DHT22;8303;53.446;9.988;2022-12-01T21:10:18;2.40;1.00
16388;DHT22;8303;53.446;9.988;2022-12-01T21:12:48;2.30;1.00
16388;DHT22;8303;53.446;9.988;2022-12-01T21:15:38;2.40;1.00
16388;DHT22;8303;53.446;9.988;2022-12-01T21:18:13;2.40;1.00
16388;DHT22;8303;53.446;9.988;2022-12-01T21:20:44;2.40;1.00
16388;DHT22;8303;53.446;9.988;2022-12-01T21:23:13;2.30;1.00
16388;DHT22;8303;53.446;9.988;2022-12-01T21:25:42;2.20;1.00
16388;DHT22;8303;53.446;9.988;2022-12-01T21:28:14;2.30;1.00
